createdAt,value
2022-09-15T00:01:02.847Z,98181.20
2022-09-15T00:02:18.581Z,98180.27
2022-09-15T00:03:25.757Z,98180.30
2022-09-15T00:04:32.325Z,98181.78
2022-09-15T00:05:38.149Z,98186.71
2022-09-15T00:06:45.647Z,98187.27
2022-09-15T00:07:54.165Z,98186.48
2022-09-15T00:09:00.346Z,98186.11
2022-09-15T00:10:07.902Z,98185.30
2022-09-15T00:11:24.967Z,98187.13
2022-09-15T00:12:32.024Z,98187.27
2022-09-15T00:13:38.654Z,98193.89
2022-09-15T00:14:45.484Z,98193.38
2022-09-15T00:15:53.623Z,98192.06
2022-09-15T00:16:59.925Z,98190.75
2022-09-15T00:18:09.253Z,98190.60
2022-09-15T00:19:15.675Z,98186.54
2022-09-15T00:20:23.200Z,98186.79
2022-09-15T00:21:31.840Z,98192.82
2022-09-15T00:22:40.947Z,98192.78
2022-09-15T00:23:48.546Z,98189.69
2022-09-15T00:24:55.648Z,98197.45
2022-09-15T00:26:02.252Z,98194.79
2022-09-15T00:27:07.930Z,98196.77
2022-09-15T00:28:14.953Z,98202.42
2022-09-15T00:29:50.440Z,98198.52
2022-09-15T00:31:15.211Z,98200.84
2022-09-15T00:34:16.303Z,98198.63
2022-09-15T00:35:32.305Z,98202.98
2022-09-15T00:36:50.274Z,98203.10
2022-09-15T00:38:13.606Z,98202.66
2022-09-15T00:43:47.285Z,98200.48
2022-09-15T00:45:01.703Z,98197.05
2022-09-15T00:46:07.547Z,98200.30
2022-09-15T00:47:19.777Z,98197.21
2022-09-15T00:48:29.774Z,98197.50
2022-09-15T00:49:36.661Z,98199.33
2022-09-15T00:50:46.468Z,98197.70
2022-09-15T00:51:55.366Z,98201.67
2022-09-15T00:53:03.006Z,98206.64
2022-09-15T00:54:12.420Z,98206.23
2022-09-15T00:55:30.980Z,98204.38
2022-09-15T00:56:39.957Z,98207.33
2022-09-15T00:58:11.245Z,98203.46
2022-09-15T00:59:23.462Z,98198.76
2022-09-15T01:00:30.300Z,98195.88
2022-09-15T01:01:38.126Z,98192.31
2022-09-15T01:02:46.227Z,98195.59
2022-09-15T01:03:53.554Z,98199.45
2022-09-15T01:05:02.822Z,98198.45
2022-09-15T01:06:17.554Z,98200.30
2022-09-15T01:07:31.543Z,98200.78
2022-09-15T01:09:00.264Z,98200.40
2022-09-15T01:10:44.771Z,98206.16
2022-09-15T01:12:03.998Z,98206.77
2022-09-15T01:13:19.038Z,98210.89
2022-09-15T01:14:27.025Z,98211.64
2022-09-15T01:16:02.397Z,98204.02
2022-09-15T01:17:27.518Z,98209.86
2022-09-15T01:19:14.598Z,98214.47
2022-09-15T01:20:57.805Z,98213.80
2022-09-15T01:22:31.532Z,98220.45
2022-09-15T01:24:41.321Z,98221.25
2022-09-15T01:25:59.256Z,98217.82
2022-09-15T01:27:42.213Z,98224.60
2022-09-15T01:29:26.429Z,98225.45
2022-09-15T01:31:02.751Z,98229.67
2022-09-15T01:32:38.212Z,98232.23
2022-09-15T01:34:04.887Z,98239.52
2022-09-15T01:35:54.524Z,98243.91
2022-09-15T01:37:15.871Z,98248.78
2022-09-15T01:38:33.416Z,98250.61
2022-09-15T01:39:43.198Z,98255.62
2022-09-15T01:41:20.616Z,98257.58
2022-09-15T01:42:27.206Z,98261.15
2022-09-15T01:43:35.950Z,98256.42
2022-09-15T01:45:02.928Z,98261.91
2022-09-15T01:46:08.769Z,98262.99
2022-09-15T01:47:18.065Z,98264.42
2022-09-15T01:48:25.930Z,98265.26
2022-09-15T01:50:13.154Z,98268.49
2022-09-15T01:51:20.485Z,98270.66
2022-09-15T01:52:26.480Z,98273.48
2022-09-15T01:53:32.745Z,98271.17
2022-09-15T01:54:41.302Z,98274.41
2022-09-15T01:56:12.722Z,98278.14
2022-09-15T01:57:24.713Z,98275.39
2022-09-15T01:58:34.038Z,98279.10
2022-09-15T01:59:44.165Z,98279.60
2022-09-15T02:01:29.518Z,98282.55
2022-09-15T02:02:45.885Z,98279.79
2022-09-15T02:04:25.942Z,98279.34
2022-09-15T02:06:02.447Z,98284.21
2022-09-15T02:07:13.271Z,98286.39
2022-09-15T02:08:29.871Z,98287.70
2022-09-15T02:09:39.812Z,98286.67
2022-09-15T02:10:53.132Z,98287.10
2022-09-15T02:12:34.211Z,98292.27
2022-09-15T02:19:19.133Z,98295.55
2022-09-15T02:22:39.169Z,98297.17
2022-09-15T02:23:53.696Z,98299.14
2022-09-15T02:25:19.195Z,98298.48
2022-09-15T02:26:27.317Z,98299.60
2022-09-15T02:27:38.449Z,98300.73
2022-09-15T02:28:44.779Z,98298.61
2022-09-15T02:29:55.129Z,98301.86
2022-09-15T02:31:02.292Z,98299.84
2022-09-15T02:32:08.590Z,98300.64
2022-09-15T02:33:16.068Z,98301.39
2022-09-15T02:34:26.646Z,98301.42
2022-09-15T02:35:35.454Z,98303.23
2022-09-15T02:36:42.079Z,98301.20
2022-09-15T02:37:48.180Z,98301.23
2022-09-15T02:38:56.945Z,98299.79
2022-09-15T02:40:03.646Z,98298.74
2022-09-15T02:41:09.413Z,98305.05
2022-09-15T02:42:33.753Z,98306.27
2022-09-15T02:43:47.107Z,98306.64
2022-09-15T02:44:58.563Z,98306.84
2022-09-15T02:46:06.667Z,98308.58
2022-09-15T02:47:14.114Z,98311.58
2022-09-15T02:48:25.791Z,98311.68
2022-09-15T02:49:37.630Z,98308.95
2022-09-15T02:50:47.303Z,98314.77
2022-09-15T02:52:03.061Z,98318.09
2022-09-15T02:53:13.860Z,98319.16
2022-09-15T02:54:19.825Z,98318.72
2022-09-15T02:55:29.793Z,98320.61
2022-09-15T02:56:39.891Z,98322.29
2022-09-15T02:57:47.376Z,98323.04
2022-09-15T02:59:00.097Z,98321.60
2022-09-15T03:00:18.352Z,98322.89
2022-09-15T03:01:33.322Z,98324.73
2022-09-15T03:02:39.956Z,98327.77
2022-09-15T03:03:46.052Z,98333.10
2022-09-15T03:04:53.144Z,98335.77
2022-09-15T03:08:16.035Z,98339.18
2022-09-15T03:09:30.082Z,98342.20
2022-09-15T03:10:36.021Z,98343.50
2022-09-15T03:11:43.426Z,98348.16
2022-09-15T03:12:53.884Z,98348.89
2022-09-15T03:14:04.648Z,98349.08
2022-09-15T03:15:11.059Z,98352.02
2022-09-15T03:16:17.540Z,98352.27
2022-09-15T03:17:23.690Z,98357.04
2022-09-15T03:18:30.122Z,98359.04
2022-09-15T03:19:36.435Z,98362.60
2022-09-15T03:20:42.716Z,98366.21
2022-09-15T03:21:51.623Z,98368.86
2022-09-15T03:22:57.465Z,98366.72
2022-09-15T03:24:06.058Z,98374.63
2022-09-15T03:25:12.218Z,98378.85
2022-09-15T03:26:20.747Z,98378.77
2022-09-15T03:27:26.714Z,98380.95
2022-09-15T03:28:35.749Z,98386.86
2022-09-15T03:29:42.067Z,98385.25
2022-09-15T03:30:49.703Z,98387.27
2022-09-15T03:31:57.268Z,98388.38
2022-09-15T03:33:03.282Z,98390.05
2022-09-15T03:34:09.536Z,98388.42
2022-09-15T03:35:15.120Z,98393.52
2022-09-15T03:36:23.968Z,98395.95
2022-09-15T03:37:30.028Z,98394.83
2022-09-15T03:38:36.346Z,98396.00
2022-09-15T03:39:42.565Z,98399.05
2022-09-15T03:41:05.079Z,98400.28
2022-09-15T03:42:11.584Z,98401.29
2022-09-15T03:43:18.796Z,98405.24
2022-09-15T03:44:25.175Z,98406.15
2022-09-15T03:45:31.506Z,98409.13
2022-09-15T03:46:40.520Z,98408.29
2022-09-15T03:47:47.273Z,98412.63
2022-09-15T03:48:54.388Z,98415.16
2022-09-15T03:50:00.870Z,98413.48
2022-09-15T03:51:07.315Z,98417.63
2022-09-15T03:52:14.091Z,98418.43
2022-09-15T03:53:21.129Z,98421.90
2022-09-15T03:54:28.764Z,98419.55
2022-09-15T03:55:35.443Z,98424.87
2022-09-15T03:56:42.465Z,98424.57
2022-09-15T03:57:48.844Z,98426.83
2022-09-15T03:58:54.983Z,98427.19
2022-09-15T04:00:01.906Z,98429.11
2022-09-15T04:01:10.636Z,98432.25
2022-09-15T04:02:18.742Z,98432.21
2022-09-15T04:03:29.684Z,98430.67
2022-09-15T04:04:37.528Z,98430.49
2022-09-15T04:05:43.238Z,98433.58
2022-09-15T04:06:50.453Z,98434.42
2022-09-15T04:07:56.723Z,98430.63
2022-09-15T04:09:03.678Z,98429.20
2022-09-15T04:10:11.162Z,98430.86
2022-09-15T04:11:17.932Z,98434.64
2022-09-15T04:12:25.312Z,98434.77
2022-09-15T04:13:31.512Z,98433.23
2022-09-15T04:14:37.237Z,98431.52
2022-09-15T04:15:44.194Z,98432.98
2022-09-15T04:16:50.708Z,98431.28
2022-09-15T04:17:58.852Z,98432.12
2022-09-15T04:19:06.153Z,98431.25
2022-09-15T04:20:12.641Z,98432.96
2022-09-15T04:21:21.537Z,98431.98
2022-09-15T04:22:28.269Z,98433.35
2022-09-15T04:23:35.719Z,98434.20
2022-09-15T04:24:42.093Z,98433.30
2022-09-15T04:26:09.462Z,98435.77
2022-09-15T04:27:16.988Z,98434.05
2022-09-15T04:28:26.666Z,98433.81
2022-09-15T04:29:33.641Z,98433.20
2022-09-15T04:30:40.085Z,98433.02
2022-09-15T04:31:49.208Z,98434.76
2022-09-15T04:32:55.659Z,98437.50
2022-09-15T04:34:01.816Z,98438.58
2022-09-15T04:35:08.807Z,98438.52
2022-09-15T04:36:21.110Z,98441.38
2022-09-15T04:37:28.892Z,98439.84
2022-09-15T04:38:36.690Z,98438.69
2022-09-15T04:39:43.244Z,98441.29
2022-09-15T04:40:52.225Z,98440.70
2022-09-15T04:42:00.876Z,98436.40
2022-09-15T04:43:07.074Z,98436.99
2022-09-15T04:44:14.360Z,98438.40
2022-09-15T04:45:20.749Z,98440.61
2022-09-15T04:46:26.854Z,98434.45
2022-09-15T04:47:34.318Z,98434.98
2022-09-15T04:48:40.870Z,98436.91
2022-09-15T04:49:47.634Z,98438.80
2022-09-15T04:50:53.832Z,98438.30
2022-09-15T04:51:59.850Z,98435.75
2022-09-15T04:53:05.874Z,98437.48
2022-09-15T04:54:13.285Z,98439.33
2022-09-15T04:55:19.411Z,98441.60
2022-09-15T04:56:26.402Z,98437.75
2022-09-15T04:57:32.434Z,98440.94
2022-09-15T04:58:40.692Z,98443.48
2022-09-15T04:59:48.250Z,98442.41
2022-09-15T05:00:54.402Z,98444.80
2022-09-15T05:02:00.462Z,98446.95
2022-09-15T05:03:07.367Z,98445.90
2022-09-15T05:04:15.244Z,98448.16
2022-09-15T05:05:22.440Z,98448.45
2022-09-15T05:06:29.839Z,98449.58
2022-09-15T05:07:38.687Z,98452.23
2022-09-15T05:08:49.864Z,98456.29
2022-09-15T05:09:56.679Z,98457.83
2022-09-15T05:11:04.566Z,98456.02
2022-09-15T05:12:11.666Z,98457.21
2022-09-15T05:13:18.884Z,98456.70
2022-09-15T05:14:25.195Z,98458.95
2022-09-15T05:15:31.236Z,98455.98
2022-09-15T05:16:37.814Z,98454.71
2022-09-15T05:17:43.851Z,98452.15
2022-09-15T05:18:50.831Z,98452.72
2022-09-15T05:19:57.064Z,98452.54
2022-09-15T05:21:03.507Z,98451.93
2022-09-15T05:22:12.469Z,98450.98
2022-09-15T05:23:19.425Z,98452.95
2022-09-15T05:24:26.865Z,98453.13
2022-09-15T05:25:34.193Z,98452.46
2022-09-15T05:26:40.307Z,98453.05
2022-09-15T05:27:47.654Z,98455.44
2022-09-15T05:28:54.390Z,98455.93
2022-09-15T05:30:23.888Z,98457.52
2022-09-15T05:31:35.221Z,98457.00
2022-09-15T05:32:43.765Z,98458.52
2022-09-15T05:33:50.414Z,98463.35
2022-09-15T05:34:57.454Z,98460.09
2022-09-15T05:36:04.761Z,98461.23
2022-09-15T05:37:11.699Z,98461.00
2022-09-15T05:38:18.694Z,98463.88
2022-09-15T05:39:25.712Z,98462.92
2022-09-15T05:40:31.917Z,98461.41
2022-09-15T05:41:38.011Z,98464.02
2022-09-15T05:42:43.915Z,98463.90
2022-09-15T05:43:50.602Z,98464.82
2022-09-15T05:44:58.269Z,98461.83
2022-09-15T05:46:04.432Z,98464.72
2022-09-15T05:47:11.066Z,98465.78
2022-09-15T05:48:18.457Z,98466.80
2022-09-15T05:49:25.414Z,98469.21
2022-09-15T05:50:33.998Z,98470.67
2022-09-15T05:51:40.284Z,98466.49
2022-09-15T05:52:53.072Z,98465.31
2022-09-15T05:53:59.753Z,98465.09
2022-09-15T05:55:06.036Z,98470.04
2022-09-15T05:56:15.787Z,98470.74
2022-09-15T05:57:22.725Z,98471.11
2022-09-15T05:58:31.639Z,98471.87
2022-09-15T05:59:39.869Z,98472.05
2022-09-15T06:00:48.461Z,98472.80
2022-09-15T06:01:54.903Z,98470.19
2022-09-15T06:03:01.948Z,98470.84
2022-09-15T06:04:09.216Z,98473.16
2022-09-15T06:05:15.426Z,98471.89
2022-09-15T06:06:22.970Z,98470.42
2022-09-15T06:07:29.020Z,98473.25
2022-09-15T06:08:47.996Z,98472.05
2022-09-15T06:09:56.494Z,98470.25
2022-09-15T06:11:13.142Z,98473.52
2022-09-15T06:12:24.849Z,98471.29
2022-09-15T06:13:31.030Z,98473.52
2022-09-15T06:14:37.855Z,98471.98
2022-09-15T06:15:44.705Z,98470.55
2022-09-15T06:16:53.785Z,98471.15
2022-09-15T06:18:00.777Z,98474.55
2022-09-15T06:19:10.110Z,98474.12
2022-09-15T06:20:17.519Z,98476.79
2022-09-15T06:21:27.446Z,98477.59
2022-09-15T06:22:34.193Z,98479.96
2022-09-15T06:23:40.925Z,98483.05
2022-09-15T06:24:47.548Z,98484.27
2022-09-15T06:25:54.178Z,98484.85
2022-09-15T06:27:01.258Z,98483.98
2022-09-15T06:28:07.130Z,98485.60
2022-09-15T06:29:16.272Z,98484.36
2022-09-15T06:30:22.318Z,98487.85
2022-09-15T06:31:29.216Z,98488.56
2022-09-15T06:32:36.983Z,98487.11
2022-09-15T06:33:45.613Z,98488.29
2022-09-15T06:34:52.184Z,98485.50
2022-09-15T06:35:58.245Z,98487.76
2022-09-15T06:37:04.427Z,98485.36
2022-09-15T06:38:11.597Z,98485.29
2022-09-15T06:39:19.407Z,98485.00
2022-09-15T06:40:29.310Z,98485.34
2022-09-15T06:42:00.698Z,98487.54
2022-09-15T06:43:10.829Z,98491.60
2022-09-15T06:44:18.205Z,98491.35
2022-09-15T06:45:26.360Z,98493.02
2022-09-15T06:46:33.857Z,98490.84
2022-09-15T06:47:41.899Z,98493.27
2022-09-15T06:48:52.164Z,98495.47
2022-09-15T06:50:00.254Z,98493.39
2022-09-15T06:51:09.481Z,98494.52
2022-09-15T06:52:15.590Z,98494.35
2022-09-15T06:53:22.605Z,98494.63
2022-09-15T06:54:30.772Z,98493.44
2022-09-15T06:55:36.913Z,98496.95
2022-09-15T06:56:44.723Z,98496.12
2022-09-15T06:57:51.691Z,98498.25
2022-09-15T06:59:00.644Z,98498.27
2022-09-15T07:00:15.051Z,98497.11
2022-09-15T07:01:28.718Z,98496.81
2022-09-15T07:02:34.713Z,98498.52
2022-09-15T07:03:43.764Z,98499.73
2022-09-15T07:04:52.484Z,98501.05
2022-09-15T07:05:58.266Z,98497.02
2022-09-15T07:07:07.158Z,98500.14
2022-09-15T07:08:13.695Z,98501.84
2022-09-15T07:09:20.793Z,98501.67
2022-09-15T07:10:28.367Z,98502.10
2022-09-15T07:11:34.080Z,98503.97
2022-09-15T07:12:43.128Z,98504.73
2022-09-15T07:13:51.971Z,98503.67
2022-09-15T07:14:58.592Z,98503.81
2022-09-15T07:16:04.670Z,98504.11
2022-09-15T07:17:11.367Z,98501.94
2022-09-15T07:18:18.624Z,98502.52
2022-09-15T07:19:26.122Z,98503.63
2022-09-15T07:20:32.528Z,98505.48
2022-09-15T07:21:38.579Z,98506.13
2022-09-15T07:22:45.038Z,98507.20
2022-09-15T07:23:51.009Z,98506.16
2022-09-15T07:24:57.143Z,98501.27
2022-09-15T07:26:22.661Z,98504.86
2022-09-15T07:27:32.631Z,98501.48
2022-09-15T07:28:42.921Z,98501.63
2022-09-15T07:29:49.358Z,98503.90
2022-09-15T07:30:55.924Z,98503.55
2022-09-15T07:32:01.725Z,98501.23
2022-09-15T07:33:08.871Z,98504.20
2022-09-15T07:34:15.953Z,98506.22
2022-09-15T07:35:22.549Z,98507.66
2022-09-15T07:36:28.486Z,98509.96
2022-09-15T07:37:34.254Z,98509.03
2022-09-15T07:38:48.569Z,98506.77
2022-09-15T07:39:54.872Z,98510.00
2022-09-15T07:41:10.698Z,98508.91
2022-09-15T07:42:16.809Z,98506.59
2022-09-15T07:43:23.083Z,98505.55
2022-09-15T07:44:29.426Z,98503.60
2022-09-15T07:45:37.414Z,98499.00
2022-09-15T07:46:45.290Z,98497.05
2022-09-15T07:47:54.600Z,98499.91
2022-09-15T07:49:01.494Z,98499.42
2022-09-15T07:50:07.969Z,98499.02
2022-09-15T07:51:15.834Z,98496.95
2022-09-15T07:52:21.930Z,98496.29
2022-09-15T07:53:31.321Z,98496.04
2022-09-15T07:54:38.863Z,98495.56
2022-09-15T07:55:44.630Z,98495.19
2022-09-15T07:56:52.102Z,98495.11
2022-09-15T07:58:05.126Z,98492.27
2022-09-15T07:59:11.425Z,98492.57
2022-09-15T08:00:18.728Z,98491.61
2022-09-15T08:01:24.968Z,98491.42
2022-09-15T08:02:30.946Z,98491.52
2022-09-15T08:03:42.052Z,98492.72
2022-09-15T08:04:49.345Z,98490.20
2022-09-15T08:06:02.229Z,98489.73
2022-09-15T08:07:08.158Z,98491.21
2022-09-15T08:08:14.095Z,98489.63
2022-09-15T08:09:22.005Z,98488.48
2022-09-15T08:10:27.733Z,98488.81
2022-09-15T08:11:35.357Z,98486.26
2022-09-15T08:12:41.633Z,98484.45
2022-09-15T08:13:49.985Z,98484.19
2022-09-15T08:14:57.946Z,98483.98
2022-09-15T08:16:10.454Z,98478.95
2022-09-15T08:17:16.523Z,98478.85
2022-09-15T08:18:23.569Z,98482.48
2022-09-15T08:19:33.102Z,98484.70
2022-09-15T08:20:42.756Z,98483.70
2022-09-15T08:21:48.787Z,98484.58
2022-09-15T08:22:54.873Z,98487.41
2022-09-15T08:24:01.715Z,98486.11
2022-09-15T08:25:08.204Z,98482.50
2022-09-15T08:26:14.740Z,98487.23
2022-09-15T08:27:21.361Z,98485.61
2022-09-15T08:28:27.255Z,98485.73
2022-09-15T08:29:33.382Z,98488.12
2022-09-15T08:30:40.544Z,98490.84
2022-09-15T08:31:47.041Z,98490.72
2022-09-15T08:32:53.170Z,98488.90
2022-09-15T08:34:04.466Z,98489.52
2022-09-15T08:35:13.347Z,98491.16
2022-09-15T08:36:19.220Z,98489.83
2022-09-15T08:37:25.423Z,98490.48
2022-09-15T08:38:31.057Z,98489.18
2022-09-15T08:39:37.204Z,98490.88
2022-09-15T08:40:44.957Z,98492.17
2022-09-15T08:41:54.159Z,98490.88
2022-09-15T08:43:00.859Z,98493.81
2022-09-15T08:44:24.897Z,98491.10
2022-09-15T08:45:32.323Z,98491.27
2022-09-15T08:46:51.058Z,98486.50
2022-09-15T08:48:00.438Z,98488.55
2022-09-15T08:49:50.910Z,98487.55
2022-09-15T08:51:01.313Z,98484.00
2022-09-15T08:52:08.923Z,98485.71
2022-09-15T08:53:19.247Z,98487.19
2022-09-15T08:54:27.487Z,98488.35
2022-09-15T08:55:55.686Z,98489.89
2022-09-15T08:57:03.350Z,98489.19
2022-09-15T08:58:33.395Z,98489.02
2022-09-15T08:59:41.568Z,98488.06
2022-09-15T09:00:54.410Z,98487.75
2022-09-15T09:02:32.018Z,98489.36
2022-09-15T09:03:44.695Z,98491.70
2022-09-15T09:05:11.637Z,98492.31
2022-09-15T09:06:49.449Z,98494.98
2022-09-15T09:08:13.607Z,98492.71
2022-09-15T09:09:55.922Z,98497.27
2022-09-15T09:11:06.577Z,98499.38
2022-09-15T09:12:33.553Z,98498.44
2022-09-15T09:14:06.880Z,98498.31
2022-09-15T09:15:37.010Z,98496.15
2022-09-15T09:16:52.418Z,98496.67
2022-09-15T09:18:36.269Z,98493.92
2022-09-15T09:20:07.225Z,98498.00
2022-09-15T09:21:34.838Z,98497.84
2022-09-15T09:22:41.737Z,98501.02
2022-09-15T09:24:07.006Z,98502.27
2022-09-15T09:25:26.629Z,98502.55
2022-09-15T09:26:36.613Z,98503.19
2022-09-15T09:27:44.167Z,98503.92
2022-09-15T09:29:02.565Z,98504.76
2022-09-15T09:30:20.519Z,98500.73
2022-09-15T09:31:29.393Z,98504.56
2022-09-15T09:33:08.633Z,98501.77
2022-09-15T09:34:14.233Z,98506.50
2022-09-15T09:35:45.847Z,98505.52
2022-09-15T09:37:15.087Z,98503.88
2022-09-15T09:38:40.204Z,98503.58
2022-09-15T09:39:49.606Z,98503.61
2022-09-15T09:40:58.669Z,98506.12
2022-09-15T09:42:15.204Z,98504.34
2022-09-15T09:43:21.795Z,98504.08
2022-09-15T09:44:32.251Z,98507.45
2022-09-15T09:45:39.747Z,98510.59
2022-09-15T09:46:47.175Z,98505.21
2022-09-15T09:47:58.327Z,98507.14
2022-09-15T09:49:24.194Z,98506.96
2022-09-15T09:50:40.305Z,98505.88
2022-09-15T09:52:03.848Z,98505.45
2022-09-15T09:53:34.679Z,98510.48
2022-09-15T09:54:40.452Z,98509.63
2022-09-15T09:55:49.348Z,98510.23
2022-09-15T09:56:57.064Z,98511.48
2022-09-15T09:58:32.306Z,98510.15
2022-09-15T09:59:56.756Z,98510.86
2022-09-15T10:01:02.919Z,98512.20
2022-09-15T10:02:17.670Z,98512.04
2022-09-15T10:03:29.256Z,98513.75
2022-09-15T10:04:41.005Z,98513.23
2022-09-15T10:06:21.794Z,98512.48
2022-09-15T10:07:28.242Z,98512.77
2022-09-15T10:08:34.385Z,98511.56
2022-09-15T10:09:51.129Z,98516.61
2022-09-15T10:11:00.961Z,98511.78
2022-09-15T10:12:17.583Z,98512.41
2022-09-15T10:13:25.783Z,98512.05
2022-09-15T10:14:42.128Z,98507.11
2022-09-15T10:15:54.767Z,98508.27
2022-09-15T10:17:38.338Z,98509.54
2022-09-15T10:18:44.767Z,98514.83
2022-09-15T10:19:57.625Z,98514.23
2022-09-15T10:21:04.437Z,98513.14
2022-09-15T10:22:11.506Z,98510.47
2022-09-15T10:23:29.433Z,98510.56
2022-09-15T10:24:40.582Z,98508.09
2022-09-15T10:25:59.024Z,98507.14
2022-09-15T10:27:20.751Z,98507.33
2022-09-15T10:28:28.513Z,98505.79
2022-09-15T10:29:40.362Z,98503.33
2022-09-15T10:31:05.410Z,98506.33
2022-09-15T10:32:29.388Z,98506.11
2022-09-15T10:33:40.078Z,98502.31
2022-09-15T10:34:46.164Z,98502.59
2022-09-15T10:35:52.297Z,98505.38
2022-09-15T10:37:15.214Z,98501.85
2022-09-15T10:38:31.246Z,98500.59
2022-09-15T10:39:50.758Z,98500.67
2022-09-15T10:41:20.442Z,98497.88
2022-09-15T10:42:51.269Z,98498.23
2022-09-15T10:44:42.763Z,98496.20
2022-09-15T10:45:57.026Z,98497.36
2022-09-15T10:47:18.536Z,98499.01
2022-09-15T10:48:45.267Z,98497.19
2022-09-15T10:50:16.139Z,98498.95
2022-09-15T10:51:47.330Z,98499.49
2022-09-15T10:53:15.268Z,98502.15
2022-09-15T10:54:53.143Z,98499.86
2022-09-15T10:56:09.975Z,98500.34
2022-09-15T10:57:53.018Z,98500.98
2022-09-15T10:59:44.229Z,98496.31
2022-09-15T11:01:27.240Z,98498.45
2022-09-15T11:03:26.837Z,98496.76
2022-09-15T11:05:00.396Z,98497.19
2022-09-15T11:06:18.361Z,98495.09
2022-09-15T11:07:47.445Z,98494.98
2022-09-15T11:08:56.425Z,98494.06
2022-09-15T11:10:26.882Z,98494.11
2022-09-15T11:12:02.932Z,98494.19
2022-09-15T11:13:53.389Z,98491.41
2022-09-15T11:15:16.208Z,98491.52
2022-09-15T11:16:45.550Z,98491.90
2022-09-15T11:17:57.689Z,98492.41
2022-09-15T11:19:46.301Z,98490.98
2022-09-15T11:21:10.364Z,98493.23
2022-09-15T11:22:20.060Z,98494.10
2022-09-15T11:23:43.874Z,98492.73
2022-09-15T11:24:57.804Z,98493.33
2022-09-15T11:26:09.100Z,98491.46
2022-09-15T11:27:21.167Z,98491.23
2022-09-15T11:28:42.981Z,98494.11
2022-09-15T11:30:26.842Z,98495.48
2022-09-15T11:31:40.578Z,98495.88
2022-09-15T11:33:05.061Z,98498.10
2022-09-15T11:34:50.095Z,98500.06
2022-09-15T11:36:29.867Z,98503.66
2022-09-15T11:37:44.929Z,98504.79
2022-09-15T11:39:05.531Z,98501.17
2022-09-15T11:40:46.037Z,98502.98
2022-09-15T11:42:17.789Z,98501.23
2022-09-15T11:43:28.329Z,98503.08
2022-09-15T11:44:34.665Z,98504.49
2022-09-15T11:45:45.349Z,98504.38
2022-09-15T11:47:36.863Z,98502.71
2022-09-15T11:49:08.826Z,98503.48
2022-09-15T11:50:18.698Z,98505.33
2022-09-15T11:51:25.578Z,98503.10
2022-09-15T11:52:55.261Z,98505.96
2022-09-15T11:54:12.062Z,98506.55
2022-09-15T11:55:44.063Z,98508.33
2022-09-15T11:56:51.354Z,98509.14
2022-09-15T11:58:22.380Z,98509.56
2022-09-15T11:59:51.041Z,98510.34
2022-09-15T12:01:55.567Z,98509.63
2022-09-15T12:03:18.543Z,98506.77
2022-09-15T12:04:30.489Z,98504.08
2022-09-15T12:05:42.795Z,98509.02
2022-09-15T12:06:53.262Z,98507.02
2022-09-15T12:08:05.581Z,98505.92
2022-09-15T12:09:15.479Z,98508.82
2022-09-15T12:10:27.114Z,98510.53
2022-09-15T12:11:37.424Z,98507.52
2022-09-15T12:12:44.075Z,98506.31
2022-09-15T12:13:50.188Z,98507.52
2022-09-15T12:14:56.435Z,98507.09
2022-09-15T12:16:03.026Z,98510.46
2022-09-15T12:17:11.797Z,98508.91
2022-09-15T12:18:46.991Z,98510.81
2022-09-15T12:20:12.315Z,98515.58
2022-09-15T12:21:29.057Z,98511.83
2022-09-15T12:22:47.704Z,98516.98
2022-09-15T12:23:57.635Z,98519.56
2022-09-15T12:25:24.157Z,98517.70
2022-09-15T12:26:30.506Z,98519.64
2022-09-15T12:27:36.378Z,98518.48
2022-09-15T12:28:43.897Z,98523.27
2022-09-15T12:29:57.195Z,98522.08
2022-09-15T12:31:31.841Z,98523.41
2022-09-15T12:32:38.806Z,98526.41
2022-09-15T12:33:44.821Z,98528.89
2022-09-15T12:35:18.505Z,98531.45
2022-09-15T12:36:43.192Z,98533.13
2022-09-15T12:37:59.263Z,98535.73
2022-09-15T12:39:26.682Z,98533.63
2022-09-15T12:40:36.473Z,98536.63
2022-09-15T12:41:48.600Z,98536.04
2022-09-15T12:42:56.474Z,98543.20
2022-09-15T12:44:21.999Z,98545.22
2022-09-15T12:45:32.350Z,98542.55
2022-09-15T12:46:38.278Z,98542.67
2022-09-15T12:47:55.206Z,98546.02
2022-09-15T12:49:03.661Z,98547.00
2022-09-15T12:50:17.402Z,98549.48
2022-09-15T12:51:26.480Z,98548.89
2022-09-15T12:52:34.473Z,98551.01
2022-09-15T12:53:47.719Z,98550.70
2022-09-15T12:54:59.612Z,98548.60
2022-09-15T12:56:10.927Z,98550.73
2022-09-15T12:57:25.479Z,98554.80
2022-09-15T12:58:48.670Z,98556.15
2022-09-15T13:00:24.219Z,98558.10
2022-09-15T13:01:34.087Z,98561.64
2022-09-15T13:02:53.542Z,98561.35
2022-09-15T13:03:59.924Z,98562.39
2022-09-15T13:05:08.949Z,98562.92
2022-09-15T13:06:38.430Z,98565.73
2022-09-15T13:08:08.869Z,98566.77
2022-09-15T13:09:56.818Z,98567.77
2022-09-15T13:11:07.269Z,98569.73
2022-09-15T13:12:16.967Z,98570.86
2022-09-15T13:13:31.232Z,98574.72
2022-09-15T13:14:47.089Z,98574.15
2022-09-15T13:15:55.960Z,98575.31
2022-09-15T13:17:20.346Z,98580.33
2022-09-15T13:18:27.672Z,98580.16
2022-09-15T13:19:37.068Z,98582.65
2022-09-15T13:20:50.629Z,98585.15
2022-09-15T13:22:20.168Z,98587.13
2022-09-15T13:23:29.581Z,98584.02
2022-09-15T13:25:26.840Z,98590.05
2022-09-15T13:26:33.894Z,98594.29
2022-09-15T13:27:55.278Z,98595.77
2022-09-15T13:29:02.786Z,98596.31
2022-09-15T13:30:38.765Z,98595.19
2022-09-15T13:31:58.648Z,98597.80
2022-09-15T13:35:03.082Z,98601.29
2022-09-15T13:35:26.648Z,98602.41
2022-09-15T13:38:44.032Z,98602.17
2022-09-15T13:40:23.363Z,98605.33
2022-09-15T13:42:26.610Z,98602.31
2022-09-15T13:44:08.903Z,98604.93
2022-09-15T13:45:34.103Z,98608.96
2022-09-15T13:47:26.946Z,98608.30
2022-09-15T13:48:41.233Z,98610.74
2022-09-15T13:50:26.662Z,98613.23
2022-09-15T13:51:32.950Z,98612.89
2022-09-15T13:53:15.363Z,98615.31
2022-09-15T13:54:21.457Z,98619.48
2022-09-15T13:55:28.583Z,98619.46
2022-09-15T13:56:39.828Z,98617.10
2022-09-15T13:59:28.234Z,98621.70
2022-09-15T14:00:59.858Z,98622.96
2022-09-15T14:02:09.631Z,98623.79
2022-09-15T14:03:17.953Z,98626.61
2022-09-15T14:04:30.379Z,98628.66
2022-09-15T14:05:36.526Z,98630.98
2022-09-15T14:06:46.938Z,98634.27
2022-09-15T14:07:55.763Z,98636.54
2022-09-15T14:09:30.739Z,98638.30
2022-09-15T14:10:45.827Z,98640.21
2022-09-15T14:11:56.308Z,98641.28
2022-09-15T14:13:04.115Z,98641.59
2022-09-15T14:14:30.632Z,98642.76
2022-09-15T14:15:37.956Z,98647.91
2022-09-15T14:16:51.476Z,98645.00
2022-09-15T14:17:59.806Z,98642.29
2022-09-15T14:19:43.293Z,98642.17
2022-09-15T14:21:05.667Z,98641.11
2022-09-15T14:22:26.702Z,98644.65
2022-09-15T14:23:33.306Z,98646.27
2022-09-15T14:24:45.046Z,98648.04
2022-09-15T14:25:51.738Z,98647.88
2022-09-15T14:27:01.257Z,98651.41
2022-09-15T14:28:19.437Z,98648.95
2022-09-15T14:29:26.579Z,98650.94
2022-09-15T14:30:36.802Z,98647.45
2022-09-15T14:31:43.748Z,98649.67
2022-09-15T14:32:52.837Z,98651.08
2022-09-15T14:34:00.114Z,98653.63
2022-09-15T14:35:08.774Z,98659.90
2022-09-15T14:36:16.249Z,98659.30
2022-09-15T14:37:24.469Z,98661.96
2022-09-15T14:38:30.777Z,98663.10
2022-09-15T14:39:38.514Z,98664.46
2022-09-15T14:40:44.777Z,98662.70
2022-09-15T14:41:51.216Z,98666.17
2022-09-15T14:42:57.741Z,98666.51
2022-09-15T14:45:52.921Z,98668.32
2022-09-15T14:45:57.546Z,98668.30
2022-09-15T14:47:40.917Z,98669.31